Terminal Aerodrome Forecast
Issued by NWS

Home | Current Version | Previous Version | Text Only | Print | Product List | Glossary On
Versions: 1 2 3 4 5 6 7 8 9 10 11 12 13 14 15 16 17
000
FTAK31 PANC 242333
TAFADL
TAF
PADL 242333Z 2500/2524 21015G25KT P6SM VCSH FEW030 BKN050
     FM250600 17014G25KT P6SM -SHRA SCT020 OVC035
     FM250900 14011G23KT P6SM -SHRA OVC025=

USA.gov is the U.S. government's official web portal to all federal, state and local government web resources and services.